Wilford Hall USAF Hosp, Texas
Current Conditions -  °F | °C
As of 8:58 PM on Saturday 24 Jan 2015 (Local Time) from KSKF Reporting Station
Clear Clear  
Wind Chill: 49°   Ceiling: Unl
Heat Index: 49°   Visibility: 10mi
Dew Point: 35°   Wind: 3mph
Humidity: 58%   Direction: 210°SSW
Pressure: 30.1"   Gusts: NA
Location:  29.3853°N, 98.6099°W
Report Text: KSKF 250258Z AUTO 21003KT 10SM CLR 10/02 A3010 RMK AO2 SLP195 T00960016 55003 $
Loading
Personal Weather Stations






























Interactive Weather Map New forecast layout! Learn more

10-Day Weather Forecast

Advertisements
Track Severe Weather on mobile